createdAt,value
2017-11-22T00:00:58.684Z,0
2017-11-22T00:01:44.017Z,0
2017-11-22T00:02:43.926Z,0
2017-11-22T00:03:43.833Z,0
2017-11-22T00:04:44.109Z,0
2017-11-22T00:05:44.111Z,0
2017-11-22T00:06:58.784Z,0
2017-11-22T00:07:44.127Z,0
2017-11-22T00:08:44.149Z,0
2017-11-22T00:09:44.194Z,0
2017-11-22T00:10:43.949Z,0
2017-11-22T00:11:58.841Z,0
2017-11-22T00:12:44.190Z,0
2017-11-22T00:13:44.256Z,0
2017-11-22T00:14:44.269Z,0
2017-11-22T00:15:44.297Z,0
2017-11-22T00:16:44.320Z,0
2017-11-22T00:17:58.984Z,0
2017-11-22T00:18:44.037Z,0
2017-11-22T00:19:44.354Z,0
2017-11-22T00:20:43.962Z,0
2017-11-22T00:21:44.389Z,0
2017-11-22T00:22:59.068Z,0
2017-11-22T00:23:44.407Z,0
2017-11-22T00:24:44.432Z,0
2017-11-22T00:25:44.439Z,0
2017-11-22T00:26:44.477Z,0
2017-11-22T00:27:44.434Z,0
2017-11-22T00:28:44.488Z,0
2017-11-22T00:29:44.519Z,0
2017-11-22T00:30:44.510Z,0
2017-11-22T00:31:44.563Z,0
2017-11-22T00:32:44.549Z,0
2017-11-22T00:33:44.536Z,0
2017-11-22T00:34:44.578Z,0
2017-11-22T00:35:44.585Z,0
2017-11-22T00:36:44.602Z,0
2017-11-22T00:37:59.076Z,0
2017-11-22T00:38:44.866Z,0
2017-11-22T00:39:44.736Z,0
2017-11-22T00:40:44.477Z,0
2017-11-22T00:41:44.789Z,0
2017-11-22T00:42:44.709Z,0
2017-11-22T00:43:44.728Z,0
2017-11-22T00:44:59.419Z,0
2017-11-22T00:45:44.792Z,0
2017-11-22T00:46:44.796Z,0
2017-11-22T00:47:44.809Z,0
2017-11-22T00:48:44.791Z,0
2017-11-22T00:49:44.855Z,0
2017-11-22T00:50:44.882Z,0
2017-11-22T00:51:59.571Z,0
2017-11-22T00:52:44.870Z,0
2017-11-22T00:53:44.925Z,0
2017-11-22T00:54:44.885Z,0
2017-11-22T00:55:44.990Z,0
2017-11-22T00:56:44.711Z,0
2017-11-22T00:57:44.724Z,0
2017-11-22T00:58:59.666Z,0
2017-11-22T00:59:45.013Z,0
2017-11-22T01:00:59.682Z,0
2017-11-22T01:01:45.066Z,0
2017-11-22T01:02:59.719Z,0
2017-11-22T01:04:59.763Z,0
2017-11-22T01:05:45.104Z,0
2017-11-22T01:06:45.139Z,0
2017-11-22T01:07:45.141Z,0
2017-11-22T01:08:45.152Z,0
2017-11-22T01:09:59.855Z,0
2017-11-22T01:10:45.229Z,0
2017-11-22T01:11:44.920Z,0
2017-11-22T01:12:59.904Z,0
2017-11-22T01:13:44.984Z,0
2017-11-22T01:14:45.013Z,0
2017-11-22T01:15:45.286Z,0
2017-11-22T01:16:59.929Z,0
2017-11-22T01:17:59.994Z,0
2017-11-22T01:18:45.054Z,0
2017-11-22T01:19:45.376Z,0
2017-11-22T01:20:45.370Z,0
2017-11-22T01:22:45.424Z,0
2017-11-22T01:23:45.438Z,0
2017-11-22T01:24:45.435Z,0
2017-11-22T01:26:00.098Z,0
2017-11-22T01:26:45.451Z,0
2017-11-22T01:27:45.484Z,0
2017-11-22T01:28:45.240Z,0
2017-11-22T01:30:45.574Z,0
2017-11-22T01:31:45.534Z,0
2017-11-22T01:32:45.575Z,0
2017-11-22T01:33:45.597Z,0
2017-11-22T01:35:00.354Z,0
2017-11-22T01:35:45.344Z,0
2017-11-22T01:36:45.390Z,0
2017-11-22T01:38:00.306Z,0
2017-11-22T01:39:00.343Z,0
2017-11-22T01:39:45.691Z,0
2017-11-22T01:40:45.504Z,0
2017-11-22T01:42:00.381Z,0
2017-11-22T01:42:45.735Z,0
2017-11-22T01:43:45.494Z,0
2017-11-22T01:44:45.507Z,0
2017-11-22T01:45:45.788Z,0
2017-11-22T01:46:45.541Z,0
2017-11-22T01:47:45.831Z,0
2017-11-22T01:49:00.534Z,0
2017-11-22T01:49:45.620Z,0
2017-11-22T01:50:45.386Z,0
2017-11-22T01:51:45.645Z,0
2017-11-22T01:53:00.542Z,0
2017-11-22T01:53:45.915Z,0
2017-11-22T01:54:45.920Z,0
2017-11-22T01:55:45.958Z,0
2017-11-22T01:57:00.392Z,0
2017-11-22T01:58:15.346Z,0
2017-11-22T02:00:00.677Z,0
2017-11-22T02:00:45.767Z,0
2017-11-22T02:03:00.715Z,0
2017-11-22T02:03:46.115Z,0
2017-11-22T02:04:46.142Z,0
2017-11-22T02:05:46.113Z,0
2017-11-22T02:06:46.150Z,0
2017-11-22T02:07:46.166Z,0
2017-11-22T02:08:46.182Z,0
2017-11-22T02:09:46.186Z,0
2017-11-22T02:10:46.212Z,0
2017-11-22T02:11:46.284Z,0
2017-11-22T02:13:00.917Z,0
2017-11-22T02:13:46.285Z,0
2017-11-22T02:14:46.272Z,0
2017-11-22T02:15:46.283Z,0
2017-11-22T02:16:46.321Z,0
2017-11-22T02:17:46.346Z,0
2017-11-22T02:19:01.030Z,0
2017-11-22T02:19:46.391Z,0
2017-11-22T02:21:15.728Z,0
2017-11-22T02:21:46.374Z,0
2017-11-22T02:23:01.071Z,0
2017-11-22T02:23:46.430Z,0
2017-11-22T02:24:46.152Z,0
2017-11-22T02:25:46.433Z,0
2017-11-22T02:26:46.525Z,0
2017-11-22T02:27:46.491Z,0
2017-11-22T02:28:46.524Z,0
2017-11-22T02:29:46.544Z,0
2017-11-22T02:30:46.321Z,0
2017-11-22T02:32:46.558Z,0
2017-11-22T02:33:46.616Z,0
2017-11-22T02:35:46.681Z,0
2017-11-22T02:36:45.891Z,0
2017-11-22T02:37:46.664Z,0
2017-11-22T02:38:46.177Z,0
2017-11-22T02:39:46.737Z,0
2017-11-22T02:40:46.738Z,0
2017-11-22T02:41:46.764Z,0
2017-11-22T02:42:46.519Z,0
2017-11-22T02:43:46.511Z,0
2017-11-22T02:45:16.143Z,0
2017-11-22T02:45:46.579Z,0
2017-11-22T02:46:46.852Z,0
2017-11-22T02:47:46.898Z,0
2017-11-22T02:48:46.879Z,0
2017-11-22T02:49:46.633Z,0
2017-11-22T02:50:46.929Z,0
2017-11-22T02:51:46.653Z,0
2017-11-22T02:52:46.656Z,0
2017-11-22T02:53:46.784Z,0
2017-11-22T02:54:46.997Z,0
2017-11-22T02:55:47.008Z,0
2017-11-22T02:56:47.011Z,0
2017-11-22T02:57:47.026Z,0
2017-11-22T02:59:01.476Z,0
2017-11-22T02:59:47.157Z,0
2017-11-22T03:01:01.748Z,0
2017-11-22T03:01:47.094Z,0
2017-11-22T03:02:47.093Z,0
2017-11-22T03:04:01.826Z,0
2017-11-22T03:04:47.132Z,0
2017-11-22T03:05:46.871Z,0
2017-11-22T03:06:47.299Z,0
2017-11-22T03:07:47.184Z,0
2017-11-22T03:09:01.871Z,0
2017-11-22T03:09:47.288Z,0
2017-11-22T03:10:47.227Z,0
2017-11-22T03:11:47.301Z,0
2017-11-22T03:12:47.041Z,0
2017-11-22T03:14:47.324Z,0
2017-11-22T03:15:47.325Z,0
2017-11-22T03:17:02.044Z,0
2017-11-22T03:17:47.383Z,0
2017-11-22T03:18:47.391Z,0
2017-11-22T03:20:02.133Z,0
2017-11-22T03:22:02.149Z,0
2017-11-22T03:22:47.487Z,0
2017-11-22T03:23:47.484Z,0
2017-11-22T03:24:47.509Z,0
2017-11-22T03:26:02.169Z,0
2017-11-22T03:27:47.568Z,0
2017-11-22T03:28:47.695Z,0
2017-11-22T03:30:47.643Z,0
2017-11-22T03:31:47.638Z,0
2017-11-22T03:33:47.655Z,0
2017-11-22T03:35:02.052Z,0
2017-11-22T03:35:47.437Z,0
2017-11-22T03:37:02.410Z,0
2017-11-22T03:37:47.476Z,0
2017-11-22T03:38:47.717Z,0
2017-11-22T03:39:47.800Z,0
2017-11-22T03:41:47.851Z,0
2017-11-22T03:42:47.784Z,0
2017-11-22T03:43:47.824Z,0
2017-11-22T03:44:47.845Z,0
2017-11-22T03:45:47.888Z,0
2017-11-22T03:46:47.884Z,0
2017-11-22T03:48:17.235Z,0
2017-11-22T03:48:47.933Z,0
2017-11-22T03:49:47.921Z,0
2017-11-22T03:51:47.990Z,0
2017-11-22T03:53:02.428Z,0
2017-11-22T03:53:48.030Z,0
2017-11-22T03:54:48.041Z,0
2017-11-22T03:56:02.760Z,0
2017-11-22T03:57:02.727Z,0
2017-11-22T03:57:48.097Z,0
2017-11-22T04:00:02.768Z,0
2017-11-22T04:00:48.143Z,0
2017-11-22T04:02:02.572Z,0
2017-11-22T04:02:47.913Z,0
2017-11-22T04:03:48.213Z,0
2017-11-22T04:05:02.865Z,0
2017-11-22T04:05:48.287Z,0
2017-11-22T04:06:47.990Z,0
2017-11-22T04:08:48.023Z,0
2017-11-22T04:10:48.300Z,0
2017-11-22T04:12:03.007Z,0
2017-11-22T04:13:48.426Z,0
2017-11-22T04:14:48.381Z,0
2017-11-22T04:15:48.410Z,0
2017-11-22T04:17:03.084Z,0
2017-11-22T04:17:48.425Z,0
2017-11-22T04:18:48.245Z,0
2017-11-22T04:20:03.123Z,0
2017-11-22T04:20:48.493Z,0
2017-11-22T04:21:48.566Z,0
2017-11-22T04:23:03.231Z,0
2017-11-22T04:23:48.411Z,0
2017-11-22T04:25:48.334Z,0
2017-11-22T04:26:48.704Z,0
2017-11-22T04:28:03.285Z,0
2017-11-22T04:28:48.645Z,0
2017-11-22T04:29:48.698Z,0
2017-11-22T04:31:03.325Z,0
2017-11-22T04:31:48.721Z,0
2017-11-22T04:32:48.677Z,0
2017-11-22T04:33:48.774Z,0
2017-11-22T04:34:48.767Z,0
2017-11-22T04:36:03.449Z,0
2017-11-22T04:36:48.571Z,0
2017-11-22T04:37:48.810Z,0
2017-11-22T04:38:48.871Z,0
2017-11-22T04:39:48.846Z,0
2017-11-22T04:40:48.867Z,0
2017-11-22T04:42:48.874Z,0
2017-11-22T04:43:48.940Z,0
2017-11-22T04:44:48.935Z,0
2017-11-22T04:45:48.973Z,0
2017-11-22T04:46:49.021Z,0
2017-11-22T04:47:48.984Z,0
2017-11-22T04:48:49.027Z,0
2017-11-22T04:49:49.015Z,0
2017-11-22T04:50:49.097Z,0
2017-11-22T04:52:03.740Z,0
2017-11-22T04:53:03.750Z,0
2017-11-22T04:53:48.837Z,0
2017-11-22T04:54:49.122Z,0
2017-11-22T04:55:49.145Z,0
2017-11-22T04:56:49.171Z,0
2017-11-22T04:57:49.181Z,0
2017-11-22T04:58:49.221Z,0
2017-11-22T04:59:48.959Z,0
2017-11-22T05:00:49.245Z,0
2017-11-22T05:01:49.242Z,0
2017-11-22T05:02:49.289Z,0
2017-11-22T05:03:49.314Z,0
2017-11-22T05:04:49.295Z,0
2017-11-22T05:05:49.309Z,0
2017-11-22T05:06:49.325Z,0
2017-11-22T05:08:04.044Z,0
2017-11-22T05:10:03.849Z,0
2017-11-22T05:10:49.404Z,0
2017-11-22T05:11:49.485Z,0
2017-11-22T05:14:04.140Z,0
2017-11-22T05:14:49.592Z,0
2017-11-22T05:16:04.196Z,0
2017-11-22T05:16:49.279Z,0
2017-11-22T05:17:49.569Z,0
2017-11-22T05:18:49.545Z,0
2017-11-22T05:20:04.000Z,0
2017-11-22T05:21:04.317Z,0
2017-11-22T05:21:49.384Z,0
2017-11-22T05:23:04.320Z,0
2017-11-22T05:23:49.682Z,0
2017-11-22T05:24:49.394Z,0
2017-11-22T05:25:49.684Z,0
2017-11-22T05:26:49.439Z,0
2017-11-22T05:27:49.878Z,0
2017-11-22T05:28:49.527Z,0
2017-11-22T05:29:49.735Z,0
2017-11-22T05:30:49.507Z,0
2017-11-22T05:31:49.805Z,0
2017-11-22T05:32:49.800Z,0
2017-11-22T05:33:49.827Z,0
2017-11-22T05:35:04.521Z,0
2017-11-22T05:35:49.896Z,0
2017-11-22T05:36:49.872Z,0
2017-11-22T05:37:49.909Z,0
2017-11-22T05:38:49.960Z,0
2017-11-22T05:39:49.961Z,0
2017-11-22T05:41:04.655Z,0
2017-11-22T05:41:49.970Z,0
2017-11-22T05:42:50.048Z,0
2017-11-22T05:43:49.769Z,0
2017-11-22T05:44:50.030Z,0
2017-11-22T05:45:50.100Z,0
2017-11-22T05:46:50.064Z,0
2017-11-22T05:48:04.777Z,0
2017-11-22T05:48:50.225Z,0
2017-11-22T05:49:50.275Z,0
2017-11-22T05:50:50.190Z,0
2017-11-22T05:51:50.222Z,0
2017-11-22T05:53:04.873Z,0
2017-11-22T05:53:50.235Z,0
2017-11-22T05:55:04.865Z,0
2017-11-22T05:55:50.255Z,0
2017-11-22T05:56:50.290Z,0
2017-11-22T05:57:50.432Z,0
2017-11-22T05:58:50.307Z,0
2017-11-22T05:59:50.077Z,0
2017-11-22T06:00:50.334Z,0
2017-11-22T06:01:50.398Z,0
2017-11-22T06:03:05.013Z,0
2017-11-22T06:03:50.395Z,0
2017-11-22T06:04:50.393Z,0
2017-11-22T06:05:50.438Z,0
2017-11-22T06:06:50.205Z,0
2017-11-22T06:07:50.441Z,0
2017-11-22T06:08:50.490Z,0
2017-11-22T06:09:50.597Z,0
2017-11-22T06:11:05.195Z,0
2017-11-22T06:11:50.004Z,0
2017-11-22T06:12:50.314Z,0
2017-11-22T06:13:50.591Z,0
2017-11-22T06:15:05.278Z,0
2017-11-22T06:15:50.369Z,0
2017-11-22T06:16:50.671Z,0
2017-11-22T06:17:50.651Z,0
2017-11-22T06:18:50.671Z,0
2017-11-22T06:19:50.714Z,0
2017-11-22T06:20:50.727Z,0
2017-11-22T06:21:50.749Z,0
2017-11-22T06:22:50.763Z,0
2017-11-22T06:23:50.529Z,0
2017-11-22T06:24:50.514Z,0
2017-11-22T06:25:50.818Z,0
2017-11-22T06:27:05.454Z,0
2017-11-22T06:27:50.881Z,0
2017-11-22T06:28:50.609Z,0
2017-11-22T06:29:50.607Z,0
2017-11-22T06:30:50.888Z,0
2017-11-22T06:31:50.637Z,0
2017-11-22T06:32:50.948Z,0
2017-11-22T06:33:50.947Z,0
2017-11-22T06:34:50.973Z,0
2017-11-22T06:35:50.964Z,0
2017-11-22T06:37:05.674Z,0
2017-11-22T06:37:51.039Z,0
2017-11-22T06:39:05.705Z,0
2017-11-22T06:39:51.068Z,0
2017-11-22T06:40:50.798Z,0
2017-11-22T06:42:05.756Z,0
2017-11-22T06:43:05.814Z,0
2017-11-22T06:44:05.809Z,0
2017-11-22T06:44:50.892Z,0
2017-11-22T06:45:51.162Z,0
2017-11-22T06:46:51.381Z,0
2017-11-22T06:47:51.200Z,0
2017-11-22T06:48:51.246Z,0
2017-11-22T06:49:51.304Z,0
2017-11-22T06:50:51.310Z,0
2017-11-22T06:51:51.294Z,0
2017-11-22T06:52:51.066Z,0
2017-11-22T06:53:51.337Z,0
2017-11-22T06:54:51.337Z,0
2017-11-22T06:55:51.375Z,0
2017-11-22T06:56:51.385Z,0
2017-11-22T06:58:06.080Z,0
2017-11-22T06:58:51.429Z,0
2017-11-22T07:00:06.083Z,0
2017-11-22T07:00:51.445Z,0
2017-11-22T07:01:51.467Z,0
2017-11-22T07:03:05.906Z,0
2017-11-22T07:05:06.190Z,0
2017-11-22T07:07:06.408Z,0
2017-11-22T07:07:51.593Z,0
2017-11-22T07:08:51.309Z,0
2017-11-22T07:09:51.610Z,0
2017-11-22T07:10:51.630Z,0
2017-11-22T07:11:51.682Z,0
2017-11-22T07:12:51.647Z,0
2017-11-22T07:14:51.700Z,0
2017-11-22T07:16:51.460Z,0
2017-11-22T07:17:51.862Z,0
2017-11-22T07:18:51.511Z,0
2017-11-22T07:19:51.798Z,0
2017-11-22T07:20:51.805Z,0
2017-11-22T07:22:06.524Z,0
2017-11-22T07:22:51.587Z,0
2017-11-22T07:24:06.569Z,0
2017-11-22T07:25:06.579Z,0
2017-11-22T07:25:51.926Z,0
2017-11-22T07:26:51.908Z,0
2017-11-22T07:27:51.966Z,0
2017-11-22T07:28:51.960Z,5
2017-11-22T07:30:06.656Z,5
2017-11-22T07:30:51.749Z,0
2017-11-22T07:31:52.136Z,0
2017-11-22T07:32:52.038Z,5
2017-11-22T07:33:52.026Z,5
2017-11-22T07:35:06.517Z,0
2017-11-22T07:35:52.095Z,0
2017-11-22T07:36:52.131Z,0
2017-11-22T07:38:06.881Z,0
2017-11-22T07:38:52.138Z,0
2017-11-22T07:40:52.199Z,5
2017-11-22T07:41:51.970Z,5
2017-11-22T07:42:52.219Z,5
2017-11-22T07:43:52.238Z,5
2017-11-22T07:45:06.896Z,10
2017-11-22T07:46:06.416Z,5
2017-11-22T07:47:06.946Z,5
2017-11-22T07:47:52.325Z,5
2017-11-22T07:48:52.312Z,5
2017-11-22T07:49:52.349Z,5
2017-11-22T07:50:52.082Z,5
2017-11-22T07:51:52.368Z,5
2017-11-22T07:52:52.395Z,10
2017-11-22T07:53:52.473Z,10
2017-11-22T07:54:51.885Z,10
2017-11-22T07:55:52.459Z,10
2017-11-22T07:57:07.136Z,10
2017-11-22T07:57:52.558Z,10
2017-11-22T07:58:51.979Z,10
2017-11-22T07:59:52.507Z,10
2017-11-22T08:00:52.532Z,10
2017-11-22T08:02:52.644Z,15
2017-11-22T08:03:52.095Z,15
2017-11-22T08:05:07.321Z,20
2017-11-22T08:05:52.668Z,20
2017-11-22T08:07:52.656Z,15
2017-11-22T08:08:52.830Z,15
2017-11-22T08:09:52.740Z,20
2017-11-22T08:10:52.740Z,20
2017-11-22T08:11:52.725Z,25
2017-11-22T08:12:52.799Z,25
2017-11-22T08:13:52.797Z,30
2017-11-22T08:14:52.815Z,30
2017-11-22T08:15:52.804Z,30
2017-11-22T08:16:52.876Z,30
2017-11-22T08:18:07.008Z,30
2017-11-22T08:18:52.644Z,30
2017-11-22T08:19:52.888Z,30
2017-11-22T08:20:52.902Z,30
2017-11-22T08:21:52.958Z,30
2017-11-22T08:22:52.994Z,30
2017-11-22T08:23:52.457Z,30
2017-11-22T08:24:53.004Z,30
2017-11-22T08:25:53.019Z,30
2017-11-22T08:27:07.695Z,30
2017-11-22T08:27:53.081Z,25
2017-11-22T08:28:53.096Z,25
2017-11-22T08:29:53.063Z,25
2017-11-22T08:30:53.131Z,25
2017-11-22T08:31:52.879Z,20
2017-11-22T08:33:07.799Z,20
2017-11-22T08:33:53.143Z,20
2017-11-22T08:35:07.834Z,20
2017-11-22T08:35:53.210Z,25
2017-11-22T08:36:52.971Z,25
2017-11-22T08:37:53.240Z,30
2017-11-22T08:38:53.022Z,30
2017-11-22T08:39:53.017Z,30
2017-11-22T08:40:53.276Z,35
2017-11-22T08:42:07.972Z,35
2017-11-22T08:42:53.368Z,35
2017-11-22T08:43:53.378Z,35
2017-11-22T08:45:08.036Z,35
2017-11-22T08:45:53.389Z,35
2017-11-22T08:46:53.529Z,35
2017-11-22T08:47:53.164Z,35
2017-11-22T08:48:53.206Z,30
2017-11-22T08:50:08.104Z,25
2017-11-22T08:50:53.465Z,25
2017-11-22T08:51:53.508Z,20
2017-11-22T08:52:53.558Z,20
2017-11-22T08:53:53.571Z,20
2017-11-22T08:55:08.006Z,20
2017-11-22T08:55:53.547Z,15
2017-11-22T08:56:53.599Z,15
2017-11-22T08:57:53.066Z,15
2017-11-22T08:58:53.636Z,20
2017-11-22T08:59:53.695Z,15
2017-11-22T09:00:53.668Z,15
2017-11-22T09:01:53.671Z,15
2017-11-22T09:02:53.675Z,15
2017-11-22T09:03:53.738Z,20
2017-11-22T09:05:08.162Z,20
2017-11-22T09:05:53.760Z,15
2017-11-22T09:06:53.290Z,15
2017-11-22T09:07:53.823Z,15
2017-11-22T09:08:53.828Z,20
2017-11-22T09:09:53.342Z,20
2017-11-22T09:11:53.934Z,20
2017-11-22T09:12:53.663Z,20
2017-11-22T09:13:53.903Z,20
2017-11-22T09:15:08.618Z,20
2017-11-22T09:16:08.364Z,20
2017-11-22T09:16:53.965Z,20
2017-11-22T09:18:54.027Z,25
2017-11-22T09:19:53.764Z,25
2017-11-22T09:21:08.476Z,25
2017-11-22T09:21:53.831Z,25
2017-11-22T09:22:54.068Z,30
2017-11-22T09:24:08.537Z,30
2017-11-22T09:24:54.152Z,30
2017-11-22T09:25:54.150Z,30
2017-11-22T09:26:53.905Z,30
2017-11-22T09:27:53.890Z,30
2017-11-22T09:28:53.949Z,35
2017-11-22T09:29:54.248Z,35
2017-11-22T09:30:54.241Z,40
2017-11-22T09:31:54.252Z,40
2017-11-22T09:32:54.287Z,45
2017-11-22T09:33:54.306Z,45
2017-11-22T09:34:54.455Z,45
2017-11-22T09:35:54.362Z,45
2017-11-22T09:37:08.995Z,50
2017-11-22T09:37:54.510Z,55
2017-11-22T09:38:54.406Z,60
2017-11-22T09:39:54.417Z,65
2017-11-22T09:40:54.425Z,70
2017-11-22T09:41:54.482Z,65
2017-11-22T09:42:54.506Z,55
2017-11-22T09:43:54.492Z,50
2017-11-22T09:44:54.250Z,45
2017-11-22T09:46:54.530Z,40
2017-11-22T09:47:54.591Z,40
2017-11-22T09:48:54.549Z,35
2017-11-22T09:49:54.388Z,35
2017-11-22T09:50:54.662Z,35
2017-11-22T09:51:54.676Z,35
2017-11-22T09:53:09.332Z,35
2017-11-22T09:53:54.681Z,35
2017-11-22T09:54:54.698Z,35
2017-11-22T09:56:54.745Z,35
2017-11-22T09:57:54.770Z,35
2017-11-22T09:58:54.784Z,30
2017-11-22T09:59:54.817Z,30
2017-11-22T10:01:09.485Z,30
2017-11-22T10:01:54.605Z,30
2017-11-22T10:02:54.587Z,30
2017-11-22T10:04:09.529Z,30
2017-11-22T10:04:54.652Z,30
2017-11-22T10:05:54.930Z,30
2017-11-22T10:06:54.679Z,35
2017-11-22T10:08:09.603Z,35
2017-11-22T10:08:54.976Z,35
2017-11-22T10:09:54.990Z,35
2017-11-22T10:11:09.671Z,35
2017-11-22T10:11:55.035Z,35
2017-11-22T10:12:55.120Z,35
2017-11-22T10:13:55.069Z,35
2017-11-22T10:14:55.128Z,35
2017-11-22T10:16:09.779Z,40
2017-11-22T10:17:09.808Z,40
2017-11-22T10:18:09.849Z,40
2017-11-22T10:18:55.164Z,40
2017-11-22T10:19:55.195Z,45
2017-11-22T10:21:55.255Z,40
2017-11-22T10:23:09.937Z,40
2017-11-22T10:24:10.157Z,45
2017-11-22T10:24:55.281Z,45
2017-11-22T10:25:55.052Z,45
2017-11-22T10:26:55.441Z,50
2017-11-22T10:28:09.735Z,50
2017-11-22T10:28:55.097Z,50
2017-11-22T10:29:55.344Z,50
2017-11-22T10:30:55.423Z,50
2017-11-22T10:31:55.420Z,50
2017-11-22T10:32:55.434Z,50
2017-11-22T10:33:55.439Z,50
2017-11-22T10:34:55.208Z,50
2017-11-22T10:35:55.491Z,50
2017-11-22T10:36:55.541Z,50
2017-11-22T10:38:55.585Z,50
2017-11-22T10:40:09.980Z,55
2017-11-22T10:40:55.326Z,55
2017-11-22T10:41:55.618Z,55
2017-11-22T10:43:10.292Z,50
2017-11-22T10:43:55.693Z,50
2017-11-22T10:44:55.667Z,50
2017-11-22T10:46:10.493Z,45
2017-11-22T10:46:55.480Z,45
2017-11-22T10:47:55.752Z,45
2017-11-22T10:48:55.765Z,45
2017-11-22T10:49:55.586Z,45
2017-11-22T10:50:55.539Z,40
2017-11-22T10:51:55.288Z,40
2017-11-22T10:52:55.551Z,40
2017-11-22T10:54:10.506Z,40
2017-11-22T10:54:55.875Z,40
2017-11-22T10:56:10.579Z,40
2017-11-22T10:56:55.641Z,40
2017-11-22T10:58:10.605Z,40
2017-11-22T10:58:55.946Z,40
2017-11-22T10:59:55.704Z,40
2017-11-22T11:00:56.000Z,35
2017-11-22T11:02:10.725Z,35
2017-11-22T11:02:56.018Z,35
2017-11-22T11:03:56.063Z,30
2017-11-22T11:04:56.064Z,30
2017-11-22T11:05:56.077Z,30
2017-11-22T11:07:10.797Z,35
2017-11-22T11:07:55.855Z,35
2017-11-22T11:08:56.168Z,35
2017-11-22T11:09:55.903Z,35
2017-11-22T11:10:56.249Z,35
2017-11-22T11:12:10.613Z,35
2017-11-22T11:12:56.206Z,35
2017-11-22T11:13:56.277Z,40
2017-11-22T11:14:56.251Z,40
2017-11-22T11:15:56.313Z,40
2017-11-22T11:16:56.342Z,40
2017-11-22T11:17:56.380Z,40
2017-11-22T11:18:56.360Z,40
2017-11-22T11:19:56.364Z,40
2017-11-22T11:20:56.267Z,40
2017-11-22T11:21:56.379Z,40
2017-11-22T11:22:56.158Z,45
2017-11-22T11:23:56.438Z,45
2017-11-22T11:25:56.493Z,40
2017-11-22T11:28:11.193Z,40
2017-11-22T11:28:56.277Z,40
2017-11-22T11:29:56.560Z,40
2017-11-22T11:30:56.609Z,40
2017-11-22T11:31:56.602Z,40
2017-11-22T11:33:11.285Z,40
2017-11-22T11:33:56.626Z,40
2017-11-22T11:35:11.092Z,35
2017-11-22T11:35:56.702Z,35
2017-11-22T11:36:56.687Z,35
2017-11-22T11:38:56.768Z,35
2017-11-22T11:41:11.167Z,35
2017-11-22T11:41:56.776Z,30
2017-11-22T11:43:26.146Z,30
2017-11-22T11:43:56.608Z,30
2017-11-22T11:44:56.905Z,30
2017-11-22T11:46:11.273Z,30
2017-11-22T11:46:56.927Z,30
2017-11-22T11:47:57.044Z,35
2017-11-22T11:48:56.677Z,35
2017-11-22T11:50:11.647Z,40
2017-11-22T11:51:11.672Z,40
2017-11-22T11:52:11.776Z,45
2017-11-22T11:52:57.011Z,45
2017-11-22T11:53:56.776Z,40
2017-11-22T11:54:57.089Z,40
2017-11-22T11:55:57.058Z,40
2017-11-22T11:56:56.872Z,35
2017-11-22T11:57:56.854Z,40
2017-11-22T11:59:57.160Z,35
2017-11-22T12:00:57.156Z,35
2017-11-22T12:02:57.214Z,30
2017-11-22T12:04:11.911Z,30
2017-11-22T12:04:57.286Z,30
2017-11-22T12:05:57.037Z,25
2017-11-22T12:06:57.328Z,25
2017-11-22T12:07:57.349Z,25
2017-11-22T12:08:57.346Z,25
2017-11-22T12:09:57.462Z,25
2017-11-22T12:11:12.042Z,25
2017-11-22T12:11:57.407Z,25
2017-11-22T12:12:57.481Z,25
2017-11-22T12:13:57.953Z,30
2017-11-22T12:15:26.779Z,30
2017-11-22T12:15:57.486Z,30
2017-11-22T12:16:57.568Z,30
2017-11-22T12:18:12.203Z,35
2017-11-22T12:18:57.536Z,35
2017-11-22T12:19:57.609Z,35
2017-11-22T12:22:12.237Z,35
2017-11-22T12:22:57.411Z,35
2017-11-22T12:23:57.650Z,35
2017-11-22T12:24:57.680Z,35
2017-11-22T12:25:57.425Z,35
2017-11-22T12:26:57.698Z,35
2017-11-22T12:28:12.142Z,35
2017-11-22T12:28:57.717Z,30
2017-11-22T12:29:57.978Z,30
2017-11-22T12:31:27.115Z,35
2017-11-22T12:31:57.769Z,35
2017-11-22T12:32:57.813Z,35
2017-11-22T12:33:57.842Z,35
2017-11-22T12:34:57.644Z,35
2017-11-22T12:35:57.903Z,35
2017-11-22T12:36:57.639Z,35
2017-11-22T12:37:57.392Z,35
2017-11-22T12:38:57.918Z,35
2017-11-22T12:39:57.942Z,35
2017-11-22T12:40:57.967Z,40
2017-11-22T12:41:57.986Z,40
2017-11-22T12:43:12.420Z,40
2017-11-22T12:43:58.033Z,40
2017-11-22T12:45:12.454Z,35
2017-11-22T12:45:58.061Z,35
2017-11-22T12:47:12.509Z,35
2017-11-22T12:48:12.514Z,35
2017-11-22T12:48:58.153Z,35
2017-11-22T12:49:58.205Z,30
2017-11-22T12:50:58.199Z,30
2017-11-22T12:51:57.931Z,30
2017-11-22T12:52:58.241Z,30
2017-11-22T12:54:12.939Z,30
2017-11-22T12:54:58.273Z,30
2017-11-22T12:56:12.437Z,25
2017-11-22T12:56:58.049Z,25
2017-11-22T12:57:58.340Z,25
2017-11-22T12:58:58.379Z,25
2017-11-22T12:59:58.105Z,25
2017-11-22T13:00:58.090Z,25
2017-11-22T13:01:58.379Z,25
2017-11-22T13:03:13.112Z,25
2017-11-22T13:03:58.507Z,25
2017-11-22T13:04:58.632Z,25
2017-11-22T13:06:57.992Z,20
2017-11-22T13:08:13.220Z,20
2017-11-22T13:08:58.547Z,20
2017-11-22T13:09:58.270Z,20
2017-11-22T13:11:13.268Z,20
2017-11-22T13:11:58.609Z,20
2017-11-22T13:13:13.329Z,20
2017-11-22T13:15:13.329Z,20
2017-11-22T13:16:58.729Z,25
2017-11-22T13:18:13.104Z,25
2017-11-22T13:18:58.743Z,25
2017-11-22T13:19:58.789Z,25
2017-11-22T13:20:58.805Z,25
2017-11-22T13:22:13.459Z,25
2017-11-22T13:22:58.319Z,25
2017-11-22T13:23:58.847Z,25
2017-11-22T13:24:58.870Z,25
2017-11-22T13:26:58.941Z,20
2017-11-22T13:27:58.948Z,20
2017-11-22T13:28:58.156Z,20
2017-11-22T13:29:58.965Z,20
2017-11-22T13:31:13.417Z,20
2017-11-22T13:32:13.678Z,20
2017-11-22T13:33:59.061Z,20
2017-11-22T13:34:58.777Z,15
2017-11-22T13:35:59.052Z,15
2017-11-22T13:36:58.883Z,15
2017-11-22T13:37:58.858Z,15
2017-11-22T13:38:59.145Z,15
2017-11-22T13:40:58.923Z,15
2017-11-22T13:41:58.945Z,15
2017-11-22T13:42:59.219Z,15
2017-11-22T13:43:59.235Z,15
2017-11-22T13:44:59.303Z,15
2017-11-22T13:45:59.291Z,15
2017-11-22T13:46:59.084Z,15
2017-11-22T13:47:59.384Z,15
2017-11-22T13:49:13.869Z,15
2017-11-22T13:50:14.031Z,15
2017-11-22T13:50:59.140Z,15
2017-11-22T13:51:59.465Z,15
2017-11-22T13:53:14.100Z,15
2017-11-22T13:53:59.472Z,15
2017-11-22T13:55:14.141Z,15
2017-11-22T13:55:59.566Z,15
2017-11-22T13:56:59.516Z,10
2017-11-22T13:57:59.536Z,10
2017-11-22T13:58:59.533Z,10
2017-11-22T13:59:59.577Z,10
2017-11-22T14:00:59.590Z,10
2017-11-22T14:01:59.601Z,10
2017-11-22T14:02:59.641Z,10
2017-11-22T14:03:59.389Z,10
2017-11-22T14:04:59.714Z,10
2017-11-22T14:06:29.024Z,10
2017-11-22T14:07:14.367Z,10
2017-11-22T14:07:59.767Z,10
2017-11-22T14:09:14.395Z,10
2017-11-22T14:10:14.186Z,10
2017-11-22T14:11:14.206Z,10
2017-11-22T14:11:59.829Z,10
2017-11-22T14:12:59.876Z,10
2017-11-22T14:13:59.848Z,10
2017-11-22T14:15:14.551Z,10
2017-11-22T14:16:14.571Z,10
2017-11-22T14:16:59.897Z,10
2017-11-22T14:17:59.961Z,10
2017-11-22T14:18:59.911Z,5
2017-11-22T14:19:59.997Z,5
2017-11-22T14:20:59.723Z,5
2017-11-22T14:22:14.183Z,5
2017-11-22T14:23:00.048Z,5
2017-11-22T14:24:00.065Z,5
2017-11-22T14:24:59.551Z,5
2017-11-22T14:26:00.080Z,5
2017-11-22T14:26:59.595Z,5
2017-11-22T14:28:14.808Z,5
2017-11-22T14:29:00.165Z,5
2017-11-22T14:30:14.603Z,5
2017-11-22T14:31:00.174Z,5
2017-11-22T14:31:59.963Z,5
2017-11-22T14:33:14.882Z,5
2017-11-22T14:34:00.259Z,5
2017-11-22T14:35:14.984Z,0
2017-11-22T14:36:00.400Z,0
2017-11-22T14:38:14.482Z,0
2017-11-22T14:39:00.098Z,0
2017-11-22T14:40:00.129Z,0
2017-11-22T14:41:00.156Z,0
2017-11-22T14:42:00.418Z,0
2017-11-22T14:43:15.133Z,0
2017-11-22T14:44:00.239Z,0
2017-11-22T14:44:59.945Z,0
2017-11-22T14:46:00.516Z,0
2017-11-22T14:47:00.592Z,0
2017-11-22T14:48:00.549Z,0
2017-11-22T14:49:00.540Z,0
2017-11-22T14:50:00.577Z,0
2017-11-22T14:51:15.268Z,0
2017-11-22T14:52:00.620Z,0
2017-11-22T14:53:15.334Z,0
2017-11-22T14:54:15.294Z,0
2017-11-22T14:55:00.658Z,0
2017-11-22T14:56:00.688Z,0
2017-11-22T14:57:00.764Z,0
2017-11-22T14:58:00.805Z,0
2017-11-22T14:59:00.857Z,0
2017-11-22T15:00:00.773Z,0
2017-11-22T15:01:00.797Z,0
2017-11-22T15:02:00.854Z,0
2017-11-22T15:03:00.853Z,0
2017-11-22T15:04:00.846Z,0
2017-11-22T15:05:00.889Z,0
2017-11-22T15:06:00.879Z,0
2017-11-22T15:07:00.924Z,0
2017-11-22T15:08:00.923Z,0
2017-11-22T15:10:00.968Z,0
2017-11-22T15:11:15.662Z,0
2017-11-22T15:12:01.034Z,0
2017-11-22T15:13:00.764Z,0
2017-11-22T15:14:00.813Z,0
2017-11-22T15:15:01.102Z,0
2017-11-22T15:16:01.115Z,0
2017-11-22T15:17:01.137Z,0
2017-11-22T15:18:01.157Z,0
2017-11-22T15:19:00.904Z,0
2017-11-22T15:20:01.182Z,0
2017-11-22T15:21:00.971Z,0
2017-11-22T15:23:00.981Z,0
2017-11-22T15:24:01.248Z,0
2017-11-22T15:25:15.932Z,0